createdAt,value
2023-04-08T00:00:08.192Z,98283.28
2023-04-08T00:02:37.437Z,98280.00
2023-04-08T00:05:05.377Z,98282.59
2023-04-08T00:07:32.610Z,98278.84
2023-04-08T00:09:59.715Z,98279.88
2023-04-08T00:12:26.845Z,98271.25
2023-04-08T00:14:53.933Z,98277.53
2023-04-08T00:17:21.331Z,98275.78
2023-04-08T00:19:48.423Z,98264.22
2023-04-08T00:22:15.602Z,98264.59
2023-04-08T00:24:43.280Z,98268.13
2023-04-08T00:27:10.497Z,98274.34
2023-04-08T00:29:37.952Z,98283.28
2023-04-08T00:32:05.208Z,98275.09
2023-04-08T00:34:32.660Z,98280.88
2023-04-08T00:36:59.869Z,98275.50
2023-04-08T00:39:27.106Z,98267.00
2023-04-08T00:41:54.761Z,98270.81
2023-04-08T00:44:21.912Z,98272.69
2023-04-08T00:46:49.192Z,98273.53
2023-04-08T00:49:17.692Z,98267.63
2023-04-08T00:51:44.900Z,98262.91
2023-04-08T00:54:12.034Z,98271.25
2023-04-08T00:56:39.582Z,98269.84
2023-04-08T00:59:06.809Z,98274.94
2023-04-08T01:01:48.343Z,98273.19
2023-04-08T01:04:44.871Z,98281.63
2023-04-08T01:07:30.442Z,98272.06
2023-04-08T01:10:04.187Z,98273.91
2023-04-08T01:12:33.586Z,98266.50
2023-04-08T01:15:09.243Z,98273.38
2023-04-08T01:17:38.602Z,98272.31
2023-04-08T01:20:07.775Z,98269.44
2023-04-08T01:23:06.886Z,98272.53
2023-04-08T01:25:36.961Z,98264.28
2023-04-08T01:28:16.799Z,98277.44
2023-04-08T01:30:47.470Z,98268.22
2023-04-08T01:33:17.264Z,98271.63
2023-04-08T01:35:46.344Z,98273.09
2023-04-08T01:38:18.184Z,98276.78
2023-04-08T01:40:47.177Z,98269.75
2023-04-08T01:43:16.897Z,98266.19
2023-04-08T01:45:46.634Z,98257.66
2023-04-08T01:48:15.121Z,98259.72
2023-04-08T01:50:44.180Z,98264.19
2023-04-08T01:53:13.594Z,98262.41
2023-04-08T01:55:42.267Z,98254.44
2023-04-08T01:58:17.364Z,98257.50
2023-04-08T02:00:45.347Z,98254.00
2023-04-08T02:03:17.872Z,98249.56
2023-04-08T02:05:46.901Z,98257.31
2023-04-08T02:08:14.180Z,98268.28
2023-04-08T02:10:41.352Z,98267.28
2023-04-08T02:13:08.950Z,98261.25
2023-04-08T02:15:42.426Z,98254.84
2023-04-08T02:18:35.170Z,98264.25
2023-04-08T02:21:11.701Z,98269.38
2023-04-08T02:23:39.716Z,98271.16
2023-04-08T02:26:15.858Z,98270.75
2023-04-08T02:28:43.508Z,98282.66
2023-04-08T02:31:16.039Z,98285.16
2023-04-08T02:33:46.835Z,98284.53
2023-04-08T02:36:16.295Z,98283.13
2023-04-08T02:38:49.245Z,98279.97
2023-04-08T02:41:17.326Z,98283.88
2023-04-08T02:43:44.437Z,98274.78
2023-04-08T02:46:12.225Z,98278.69
2023-04-08T02:48:39.396Z,98280.88
2023-04-08T02:51:06.716Z,98284.91
2023-04-08T02:53:33.891Z,98286.72
2023-04-08T02:56:01.423Z,98292.84
2023-04-08T02:58:28.624Z,98300.44
2023-04-08T03:00:56.009Z,98294.41
2023-04-08T03:03:28.656Z,98292.66
2023-04-08T03:05:56.683Z,98294.47
2023-04-08T03:08:24.347Z,98302.66
2023-04-08T03:10:51.804Z,98295.56
2023-04-08T03:13:18.946Z,98298.41
2023-04-08T03:15:46.428Z,98293.69
2023-04-08T03:18:13.897Z,98289.69
2023-04-08T03:20:41.376Z,98298.19
2023-04-08T03:23:08.533Z,98305.50
2023-04-08T03:26:08.127Z,98302.50
2023-04-08T03:28:35.750Z,98310.28
2023-04-08T03:31:06.646Z,98304.53
2023-04-08T03:33:33.813Z,98300.00
2023-04-08T03:36:00.939Z,98307.28
2023-04-08T03:38:28.141Z,98305.53
2023-04-08T03:40:55.262Z,98312.78
2023-04-08T03:43:22.380Z,98313.09
2023-04-08T03:45:49.535Z,98320.59
2023-04-08T03:48:17.135Z,98318.69
2023-04-08T03:50:44.195Z,98318.31
2023-04-08T03:53:12.333Z,98332.53
2023-04-08T03:56:12.804Z,98338.34
2023-04-08T03:58:39.864Z,98328.91
2023-04-08T04:01:07.034Z,98336.25
2023-04-08T04:03:34.531Z,98329.03
2023-04-08T04:06:01.721Z,98327.75
2023-04-08T04:08:28.783Z,98331.22
2023-04-08T04:10:55.913Z,98333.69
2023-04-08T04:13:23.029Z,98323.44
2023-04-08T04:15:50.256Z,98334.13
2023-04-08T04:18:17.467Z,98325.16
2023-04-08T04:20:44.718Z,98339.34
2023-04-08T04:23:12.022Z,98338.22
2023-04-08T04:25:42.078Z,98340.72
2023-04-08T04:28:10.220Z,98344.34
2023-04-08T04:30:38.687Z,98345.88
2023-04-08T04:33:06.959Z,98342.72
2023-04-08T04:35:34.322Z,98348.16
2023-04-08T04:38:01.706Z,98354.44
2023-04-08T04:40:28.803Z,98341.97
2023-04-08T04:42:56.093Z,98345.72
2023-04-08T04:45:23.195Z,98347.31
2023-04-08T04:47:50.375Z,98340.25
2023-04-08T04:50:17.618Z,98341.38
2023-04-08T04:52:44.826Z,98344.22
2023-04-08T04:55:11.885Z,98344.31
2023-04-08T04:57:39.046Z,98343.63
2023-04-08T05:00:06.912Z,98349.00
2023-04-08T05:02:34.311Z,98355.31
2023-04-08T05:05:01.630Z,98357.88
2023-04-08T05:07:28.850Z,98352.69
2023-04-08T05:09:56.345Z,98361.34
2023-04-08T05:12:23.414Z,98366.09
2023-04-08T05:14:50.511Z,98364.47
2023-04-08T05:17:17.763Z,98356.53
2023-04-08T05:19:44.874Z,98356.22
2023-04-08T05:22:11.941Z,98363.69
2023-04-08T05:24:39.140Z,98358.34
2023-04-08T05:27:06.741Z,98357.41
2023-04-08T05:29:33.787Z,98356.56
2023-04-08T05:32:01.169Z,98360.25
2023-04-08T05:34:28.259Z,98355.97
2023-04-08T05:36:55.508Z,98352.84
2023-04-08T05:39:22.539Z,98354.38
2023-04-08T05:41:49.880Z,98357.53
2023-04-08T05:44:16.991Z,98362.72
2023-04-08T05:46:44.169Z,98357.13
2023-04-08T05:49:11.300Z,98357.06
2023-04-08T05:51:39.637Z,98360.69
2023-04-08T05:54:06.896Z,98358.22
2023-04-08T05:56:34.054Z,98354.59
2023-04-08T05:59:01.677Z,98355.59
2023-04-08T06:01:28.926Z,98359.56
2023-04-08T06:03:56.927Z,98359.88
2023-04-08T06:06:26.154Z,98366.00
2023-04-08T06:08:53.304Z,98356.66
2023-04-08T06:11:20.526Z,98363.59
2023-04-08T06:13:48.272Z,98362.53
2023-04-08T06:16:20.337Z,98366.59
2023-04-08T06:18:49.184Z,98362.38
2023-04-08T06:21:17.045Z,98363.16
2023-04-08T06:23:44.304Z,98364.84
2023-04-08T06:26:11.422Z,98366.97
2023-04-08T06:28:38.501Z,98369.81
2023-04-08T06:31:06.328Z,98355.19
2023-04-08T06:33:33.448Z,98363.34
2023-04-08T06:36:04.542Z,98360.16
2023-04-08T06:38:34.798Z,98363.38
2023-04-08T06:41:05.592Z,98361.28
2023-04-08T06:43:34.423Z,98362.63
2023-04-08T06:46:01.774Z,98360.88
2023-04-08T06:48:30.898Z,98359.06
2023-04-08T06:50:59.299Z,98367.31
2023-04-08T06:53:29.446Z,98363.03
2023-04-08T06:55:56.633Z,98362.34
2023-04-08T06:58:23.908Z,98359.72
2023-04-08T07:00:51.085Z,98365.41
2023-04-08T07:03:18.297Z,98361.25
2023-04-08T07:05:45.510Z,98366.25
2023-04-08T07:08:12.582Z,98375.69
2023-04-08T07:10:39.788Z,98382.03
2023-04-08T07:13:06.955Z,98373.38
2023-04-08T07:15:34.103Z,98371.19
2023-04-08T07:18:01.261Z,98382.09
2023-04-08T07:20:29.281Z,98384.19
2023-04-08T07:22:58.008Z,98380.03
2023-04-08T07:25:25.117Z,98383.63
2023-04-08T07:27:53.027Z,98383.22
2023-04-08T07:30:20.453Z,98386.69
2023-04-08T07:32:47.660Z,98388.75
2023-04-08T07:35:14.998Z,98391.16
2023-04-08T07:37:42.038Z,98385.84
2023-04-08T07:40:09.754Z,98381.72
2023-04-08T07:42:37.734Z,98385.19
2023-04-08T07:45:06.229Z,98387.66
2023-04-08T07:47:33.400Z,98380.63
2023-04-08T07:50:00.508Z,98380.63
2023-04-08T07:52:27.755Z,98386.94
2023-04-08T07:54:54.806Z,98387.34
2023-04-08T07:57:22.286Z,98392.88
2023-04-08T07:59:49.510Z,98391.78
2023-04-08T08:02:16.685Z,98385.72
2023-04-08T08:04:44.068Z,98390.97
2023-04-08T08:07:11.513Z,98390.78
2023-04-08T08:09:38.631Z,98401.06
2023-04-08T08:12:06.387Z,98393.19
2023-04-08T08:14:33.447Z,98399.41
2023-04-08T08:17:01.651Z,98396.25
2023-04-08T08:19:28.700Z,98396.53
2023-04-08T08:21:56.457Z,98399.66
2023-04-08T08:24:23.666Z,98400.44
2023-04-08T08:26:50.840Z,98398.41
2023-04-08T08:29:17.933Z,98393.28
2023-04-08T08:31:45.093Z,98404.22
2023-04-08T08:34:12.191Z,98407.25
2023-04-08T08:36:39.337Z,98403.56
2023-04-08T08:39:06.448Z,98403.69
2023-04-08T08:41:36.098Z,98402.22
2023-04-08T08:44:05.593Z,98405.63
2023-04-08T08:46:32.883Z,98405.63
2023-04-08T08:49:00.393Z,98413.38
2023-04-08T08:51:28.726Z,98409.06
2023-04-08T08:53:55.854Z,98415.38
2023-04-08T08:56:23.006Z,98413.81
2023-04-08T08:58:50.040Z,98421.53
2023-04-08T09:01:39.046Z,98422.06
2023-04-08T09:04:20.877Z,98422.94
2023-04-08T09:06:52.749Z,98422.81
2023-04-08T09:09:20.108Z,98426.00
2023-04-08T09:11:47.802Z,98427.66
2023-04-08T09:14:22.814Z,98437.44
2023-04-08T09:16:50.901Z,98438.28
2023-04-08T09:19:18.158Z,98431.88
2023-04-08T09:21:45.571Z,98429.19
2023-04-08T09:25:21.792Z,98432.47
2023-04-08T09:27:48.867Z,98430.38
2023-04-08T09:30:16.665Z,98430.19
2023-04-08T09:32:49.917Z,98430.97
2023-04-08T09:35:18.563Z,98429.19
2023-04-08T09:37:46.648Z,98431.94
2023-04-08T09:40:16.391Z,98434.72
2023-04-08T09:42:50.691Z,98429.81
2023-04-08T10:17:26.727Z,98409.34
2023-04-08T10:19:54.593Z,98413.59
2023-04-08T10:22:46.270Z,98403.63
2023-04-08T10:25:16.894Z,98398.03
2023-04-08T10:27:45.596Z,98406.91
2023-04-08T10:30:33.521Z,98400.75
2023-04-08T10:33:01.600Z,98394.09
2023-04-08T10:35:33.236Z,98397.03
2023-04-08T10:38:01.415Z,98401.66
2023-04-08T10:40:28.639Z,98398.44
2023-04-08T10:42:59.485Z,98394.13
2023-04-08T10:45:26.750Z,98403.00
2023-04-08T10:47:53.866Z,98400.13
2023-04-08T10:50:24.252Z,98407.31
2023-04-08T10:52:53.359Z,98398.88
2023-04-08T10:55:25.557Z,98403.94
2023-04-08T10:57:54.181Z,98410.22
2023-04-08T11:00:39.474Z,98403.66
2023-04-08T11:03:08.792Z,98406.03
2023-04-08T11:05:39.395Z,98407.03
2023-04-08T11:08:06.702Z,98402.19
2023-04-08T11:10:38.955Z,98402.94
2023-04-08T11:13:13.024Z,98405.41
2023-04-08T11:15:40.200Z,98396.84
2023-04-08T11:18:07.462Z,98393.53
2023-04-08T11:20:37.240Z,98383.16
2023-04-08T11:23:04.343Z,98390.13
2023-04-08T11:25:32.173Z,98391.84
2023-04-08T11:28:00.539Z,98376.16
2023-04-08T11:30:29.320Z,98386.06
2023-04-08T11:32:57.136Z,98383.81
2023-04-08T11:35:24.418Z,98387.97
2023-04-08T11:37:52.863Z,98377.94
2023-04-08T11:40:22.285Z,98373.81
2023-04-08T11:42:50.348Z,98367.47
2023-04-08T11:45:22.481Z,98371.34
2023-04-08T11:47:49.904Z,98366.53
2023-04-08T11:50:24.916Z,98364.13
2023-04-08T11:52:53.064Z,98367.38
2023-04-08T11:55:23.077Z,98356.09
2023-04-08T11:57:51.251Z,98363.09
2023-04-08T12:00:19.321Z,98354.28
2023-04-08T12:02:49.700Z,98351.44
2023-04-08T12:05:17.799Z,98351.53
2023-04-08T12:07:45.052Z,98354.88
2023-04-08T12:10:12.477Z,98354.69
2023-04-08T12:12:40.283Z,98358.84
2023-04-08T12:15:08.530Z,98357.81
2023-04-08T12:17:36.270Z,98356.41
2023-04-08T12:20:04.418Z,98358.78
2023-04-08T12:22:31.530Z,98348.66
2023-04-08T12:24:59.289Z,98347.13
2023-04-08T12:27:26.567Z,98341.94
2023-04-08T12:29:53.603Z,98348.94
2023-04-08T12:32:20.813Z,98349.41
2023-04-08T12:34:47.974Z,98344.00
2023-04-08T12:37:15.049Z,98335.41
2023-04-08T12:39:42.108Z,98332.56
2023-04-08T12:42:09.346Z,98332.16
2023-04-08T12:44:36.548Z,98320.81
2023-04-08T12:47:03.720Z,98321.72
2023-04-08T12:49:39.521Z,98327.31
2023-04-08T12:52:15.664Z,98315.16
2023-04-08T12:54:42.743Z,98319.91
2023-04-08T12:57:09.841Z,98317.97
2023-04-08T12:59:38.195Z,98318.47
2023-04-08T13:02:05.498Z,98314.97
2023-04-08T13:04:32.641Z,98308.22
2023-04-08T13:07:01.089Z,98313.53
2023-04-08T13:09:28.523Z,98304.84
2023-04-08T13:11:55.636Z,98307.63
2023-04-08T13:14:22.703Z,98305.94
2023-04-08T13:16:50.032Z,98305.31
2023-04-08T13:19:17.191Z,98308.78
2023-04-08T13:21:46.091Z,98304.88
2023-04-08T13:24:13.563Z,98316.47
2023-04-08T13:26:40.917Z,98317.47
2023-04-08T13:29:07.959Z,98308.94
2023-04-08T13:31:35.085Z,98318.66
2023-04-08T13:34:02.251Z,98313.78
2023-04-08T13:36:29.415Z,98316.47
2023-04-08T13:38:56.898Z,98309.97
2023-04-08T13:41:25.564Z,98314.47
2023-04-08T13:43:52.753Z,98306.84
2023-04-08T13:46:19.830Z,98319.59
2023-04-08T13:48:46.981Z,98308.03
2023-04-08T13:51:14.064Z,98313.44
2023-04-08T13:53:41.117Z,98311.28
2023-04-08T13:56:08.400Z,98320.69
2023-04-08T13:58:38.145Z,98326.28
2023-04-08T14:01:05.963Z,98320.91
2023-04-08T14:03:33.384Z,98319.97
2023-04-08T14:06:02.020Z,98326.63
2023-04-08T14:08:29.306Z,98316.84
2023-04-08T14:10:57.701Z,98318.06
2023-04-08T14:13:24.863Z,98318.44
2023-04-08T14:15:53.827Z,98317.63
2023-04-08T14:18:21.026Z,98315.00
2023-04-08T14:20:48.146Z,98317.94
2023-04-08T14:23:17.087Z,98311.56
2023-04-08T14:25:44.245Z,98306.72
2023-04-08T14:28:11.657Z,98308.41
2023-04-08T14:30:38.789Z,98302.53
2023-04-08T14:33:06.432Z,98314.97
2023-04-08T14:35:33.803Z,98305.47
2023-04-08T14:38:01.273Z,98309.34
2023-04-08T14:40:28.478Z,98305.72
2023-04-08T14:42:55.557Z,98298.97
2023-04-08T14:45:22.634Z,98303.94
2023-04-08T14:47:49.749Z,98302.69
2023-04-08T14:50:17.009Z,98304.47
2023-04-08T14:52:45.473Z,98308.03
2023-04-08T14:55:12.663Z,98310.53
2023-04-08T14:57:39.801Z,98309.38
2023-04-08T15:00:07.780Z,98312.81
2023-04-08T15:02:34.953Z,98308.47
2023-04-08T15:05:02.170Z,98309.06
2023-04-08T15:07:29.244Z,98306.50
2023-04-08T15:09:57.149Z,98296.88
2023-04-08T15:12:24.660Z,98302.63
2023-04-08T15:14:51.804Z,98296.50
2023-04-08T15:17:19.058Z,98303.81
2023-04-08T15:19:46.943Z,98307.06
2023-04-08T15:22:14.072Z,98299.38
2023-04-08T15:24:42.710Z,98303.44
2023-04-08T15:27:09.943Z,98300.19
2023-04-08T15:29:37.134Z,98307.78
2023-04-08T15:32:04.248Z,98308.28
2023-04-08T15:34:31.346Z,98303.66
2023-04-08T15:36:58.611Z,98304.34
2023-04-08T15:39:26.032Z,98300.19
2023-04-08T15:41:53.398Z,98312.00
2023-04-08T15:44:20.722Z,98308.34
2023-04-08T15:46:47.874Z,98308.50
2023-04-08T15:49:15.047Z,98319.00
2023-04-08T15:51:44.676Z,98321.34
2023-04-08T15:54:11.960Z,98321.72
2023-04-08T15:56:39.085Z,98308.56
2023-04-08T15:59:06.415Z,98319.75
2023-04-08T16:01:33.906Z,98327.09
2023-04-08T16:04:01.307Z,98326.03
2023-04-08T16:06:28.570Z,98316.25
2023-04-08T16:08:56.885Z,98329.28
2023-04-08T16:11:25.353Z,98320.84
2023-04-08T16:13:52.855Z,98329.22
2023-04-08T16:16:20.193Z,98326.84
2023-04-08T16:18:47.626Z,98323.19
2023-04-08T16:21:14.917Z,98326.13
2023-04-08T16:23:42.191Z,98325.06
2023-04-08T16:26:09.305Z,98328.63
2023-04-08T16:28:37.291Z,98326.66
2023-04-08T16:31:04.485Z,98332.72
2023-04-08T16:33:32.254Z,98341.41
2023-04-08T16:36:00.694Z,98334.88
2023-04-08T16:38:28.067Z,98336.84
2023-04-08T16:40:58.555Z,98342.09
2023-04-08T16:43:26.359Z,98341.03
2023-04-08T16:45:54.178Z,98342.63
2023-04-08T16:48:21.384Z,98344.44
2023-04-08T16:50:48.434Z,98345.88
2023-04-08T16:53:15.734Z,98350.97
2023-04-08T16:55:42.774Z,98355.38
2023-04-08T16:58:10.000Z,98347.88
2023-04-08T17:00:37.774Z,98357.25
2023-04-08T17:03:05.055Z,98359.41
2023-04-08T17:05:32.252Z,98363.47
2023-04-08T17:07:59.639Z,98364.63
2023-04-08T17:10:26.894Z,98353.91
2023-04-08T17:12:54.006Z,98360.22
2023-04-08T17:15:21.256Z,98366.06
2023-04-08T17:17:48.732Z,98357.19
2023-04-08T17:20:15.860Z,98370.59
2023-04-08T17:22:43.323Z,98372.25
2023-04-08T17:25:10.935Z,98370.59
2023-04-08T17:27:38.041Z,98374.19
2023-04-08T17:30:05.594Z,98379.41
2023-04-08T17:32:33.017Z,98386.88
2023-04-08T17:35:00.156Z,98381.19
2023-04-08T17:37:27.267Z,98386.78
2023-04-08T17:39:54.383Z,98386.06
2023-04-08T17:42:22.984Z,98391.06
2023-04-08T17:44:50.099Z,98399.94
2023-04-08T17:47:17.382Z,98398.28
2023-04-08T17:49:44.528Z,98403.75
2023-04-08T17:52:11.863Z,98409.56
2023-04-08T17:54:39.157Z,98412.59
2023-04-08T17:57:06.510Z,98409.94
2023-04-08T17:59:34.165Z,98410.31
2023-04-08T18:02:01.382Z,98409.00
2023-04-08T18:04:29.978Z,98422.28
2023-04-08T18:06:57.309Z,98428.25
2023-04-08T18:09:24.390Z,98418.50
2023-04-08T18:11:51.536Z,98432.88
2023-04-08T18:15:27.687Z,98423.47
2023-04-08T18:17:56.036Z,98421.06
2023-04-08T18:20:23.168Z,98430.19
2023-04-08T18:22:50.316Z,98429.75
2023-04-08T18:25:17.673Z,98434.50
2023-04-08T18:27:44.829Z,98430.03
2023-04-08T18:30:12.224Z,98434.44
2023-04-08T18:32:39.293Z,98433.97
2023-04-08T18:35:06.621Z,98438.38
2023-04-08T18:37:34.752Z,98432.84
2023-04-08T18:40:03.822Z,98431.94
2023-04-08T18:42:31.738Z,98428.53
2023-04-08T18:44:58.839Z,98426.00
2023-04-08T18:51:55.484Z,98419.50
2023-04-08T18:54:28.773Z,98423.81
2023-04-08T18:56:56.662Z,98421.50
2023-04-08T18:59:23.816Z,98433.41
2023-04-08T19:01:51.203Z,98427.84
2023-04-08T19:04:18.433Z,98423.25
2023-04-08T19:06:45.623Z,98429.25
2023-04-08T19:09:14.464Z,98422.63
2023-04-08T19:11:41.719Z,98424.44
2023-04-08T19:14:08.952Z,98426.59
2023-04-08T19:16:36.090Z,98428.09
2023-04-08T19:19:03.605Z,98422.78
2023-04-08T19:21:31.894Z,98435.75
2023-04-08T19:23:59.074Z,98432.63
2023-04-08T19:26:26.195Z,98431.81
2023-04-08T19:28:53.427Z,98434.63
2023-04-08T19:31:21.663Z,98436.00
2023-04-08T19:33:48.968Z,98436.09
2023-04-08T19:36:16.390Z,98435.69
2023-04-08T19:38:43.494Z,98428.84
2023-04-08T19:41:11.083Z,98429.13
2023-04-08T19:43:38.220Z,98433.66
2023-04-08T19:47:14.037Z,98424.41
2023-04-08T19:49:41.131Z,98423.66
2023-04-08T19:52:08.257Z,98420.84
2023-04-08T19:54:35.522Z,98420.03
2023-04-08T19:57:02.692Z,98426.53
2023-04-08T19:59:29.864Z,98424.31
2023-04-08T20:01:57.012Z,98430.53
2023-04-08T20:04:24.345Z,98426.81
2023-04-08T20:06:51.625Z,98421.38
2023-04-08T20:09:18.721Z,98424.59
2023-04-08T20:11:45.809Z,98423.06
2023-04-08T20:14:13.011Z,98419.63
2023-04-08T20:16:40.177Z,98419.59
2023-04-08T20:19:07.257Z,98425.03
2023-04-08T20:21:56.309Z,98419.41
2023-04-08T20:24:23.871Z,98427.94
2023-04-08T20:26:52.504Z,98419.19
2023-04-08T20:29:19.893Z,98418.13
2023-04-08T20:31:47.557Z,98423.69
2023-04-08T20:34:14.826Z,98418.38
2023-04-08T20:36:42.413Z,98417.97
2023-04-08T20:39:12.929Z,98419.09
2023-04-08T20:41:40.043Z,98420.75
2023-04-08T20:44:09.817Z,98423.69
2023-04-08T20:46:37.933Z,98429.66
2023-04-08T20:49:05.871Z,98426.66
2023-04-08T20:51:33.893Z,98432.81
2023-04-08T20:54:01.174Z,98425.56
2023-04-08T20:56:28.556Z,98430.22
2023-04-08T20:58:58.238Z,98428.16
2023-04-08T21:01:27.089Z,98429.91
2023-04-08T21:07:45.030Z,98425.16
2023-04-08T21:10:14.892Z,98429.50
2023-04-08T21:12:41.959Z,98429.75
2023-04-08T21:15:09.777Z,98439.28
2023-04-08T21:17:37.426Z,98430.66
2023-04-08T21:20:05.533Z,98432.63
2023-04-08T21:22:32.935Z,98430.38
2023-04-08T21:25:00.225Z,98432.22
2023-04-08T21:27:29.290Z,98434.34
2023-04-08T21:29:56.760Z,98434.75
2023-04-08T21:32:24.439Z,98427.31
2023-04-08T21:34:54.660Z,98424.22
2023-04-08T21:37:22.890Z,98429.38
2023-04-08T21:39:50.514Z,98438.41
2023-04-08T21:42:17.873Z,98426.91
2023-04-08T21:44:44.928Z,98424.06
2023-04-08T21:47:12.020Z,98436.53
2023-04-08T21:49:39.149Z,98433.66
2023-04-08T21:52:06.886Z,98428.06
2023-04-08T21:54:34.103Z,98429.09
2023-04-08T21:57:01.620Z,98430.22
2023-04-08T21:59:28.763Z,98430.16
2023-04-08T22:01:56.764Z,98430.53
2023-04-08T22:04:23.909Z,98428.38
2023-04-08T22:06:51.406Z,98430.28
2023-04-08T22:09:19.513Z,98435.50
2023-04-08T22:11:46.596Z,98437.81
2023-04-08T22:14:14.122Z,98428.28
2023-04-08T22:16:41.859Z,98435.22
2023-04-08T22:19:09.061Z,98429.41
2023-04-08T22:21:36.490Z,98432.38
2023-04-08T22:24:03.703Z,98434.69
2023-04-08T22:26:30.814Z,98434.56
2023-04-08T22:28:57.892Z,98434.72
2023-04-08T22:31:25.053Z,98435.81
2023-04-08T22:33:52.340Z,98445.31
2023-04-08T22:36:19.533Z,98435.84
2023-04-08T22:38:46.624Z,98439.69
2023-04-08T22:41:23.827Z,98437.38
2023-04-08T22:43:51.497Z,98436.91
2023-04-08T22:46:20.211Z,98438.16
2023-04-08T22:48:48.513Z,98430.97
2023-04-08T22:51:15.814Z,98427.56
2023-04-08T22:53:43.859Z,98426.38
2023-04-08T22:56:11.147Z,98425.97
2023-04-08T22:58:38.250Z,98426.13
2023-04-08T23:01:17.264Z,98432.41
2023-04-08T23:03:44.810Z,98427.97
2023-04-08T23:06:11.932Z,98426.84
2023-04-08T23:08:39.387Z,98427.28
2023-04-08T23:11:07.252Z,98422.53
2023-04-08T23:13:34.853Z,98424.69
2023-04-08T23:16:02.507Z,98418.47
2023-04-08T23:18:29.801Z,98419.69
2023-04-08T23:20:58.216Z,98417.09
2023-04-08T23:23:25.792Z,98421.84
2023-04-08T23:25:55.717Z,98419.25
2023-04-08T23:28:23.419Z,98408.13
2023-04-08T23:30:50.529Z,98411.81
2023-04-08T23:33:17.762Z,98424.78
2023-04-08T23:35:45.159Z,98409.66
2023-04-08T23:38:12.347Z,98408.97
2023-04-08T23:40:39.621Z,98406.28
2023-04-08T23:43:06.704Z,98409.06
2023-04-08T23:45:33.816Z,98414.59
2023-04-08T23:48:01.018Z,98421.34
2023-04-08T23:50:28.378Z,98419.44
2023-04-08T23:52:55.509Z,98418.09
2023-04-08T23:55:22.608Z,98421.84
2023-04-08T23:57:50.955Z,98426.53
